Time,TemperatureF,DewpointF,PressureIn,WindDirection,WindDirectionDegrees,WindSpeedMPH,WindSpeedGustMPH,Humidity,HourlyPrecipIn,Conditions,Clouds,dailyrainin,SoftwareType,DateUTC
2013-09-09 00:00:00,65.1,64.8,30.07,NW,315,0.0,0.0,99,0.00,,---,0.00,VWS V14.00,2013-09-09 04:00:00,
2013-09-09 00:01:00,65.1,64.8,30.07,NW,315,0.0,0.0,99,0.00,,---,0.00,VWS V14.00,2013-09-09 04:01:00,
2013-09-09 00:03:00,65.1,64.8,30.07,NW,315,0.0,0.0,99,0.00,,---,0.00,VWS V14.00,2013-09-09 04:03:00,
2013-09-09 00:08:00,65.1,64.8,30.07,NW,315,0.0,0.0,99,0.00,,---,0.00,VWS V14.00,2013-09-09 04:08:00,
2013-09-09 00:13:00,65.1,64.8,30.06,NW,315,0.0,0.0,99,0.00,,---,0.00,VWS V14.00,2013-09-09 04:13:00,
2013-09-09 00:18:00,65.3,65.0,30.06,NW,315,0.0,0.0,99,0.00,,---,0.00,VWS V14.00,2013-09-09 04:18:00,
2013-09-09 00:23:00,65.3,65.0,30.06,NW,315,0.0,0.0,99,0.00,,---,0.00,VWS V14.00,2013-09-09 04:23:00,
2013-09-09 00:28:00,65.1,64.8,30.06,NW,315,0.0,0.0,99,0.00,,---,0.00,VWS V14.00,2013-09-09 04:28:00,
2013-09-09 00:33:00,65.1,64.8,30.06,NW,315,0.0,0.0,99,0.00,,---,0.00,VWS V14.00,2013-09-09 04:33:00,
2013-09-09 00:38:00,64.9,64.6,30.06,NW,315,0.0,0.0,99,0.00,,---,0.00,VWS V14.00,2013-09-09 04:38:00,
2013-09-09 00:43:00,64.9,64.6,30.06,NW,315,0.0,0.0,99,0.00,,---,0.00,VWS V14.00,2013-09-09 04:43:00,
2013-09-09 00:48:00,64.9,64.6,30.07,NW,315,0.0,0.0,99,0.00,,---,0.00,VWS V14.00,2013-09-09 04:48:00,
2013-09-09 00:53:00,64.7,64.4,30.07,NW,315,0.0,0.0,99,0.00,,---,0.00,VWS V14.00,2013-09-09 04:53:00,
2013-09-09 00:58:00,64.5,64.5,30.07,NW,315,0.0,0.0,100,0.00,,---,0.00,VWS V14.00,2013-09-09 04:58:00,
2013-09-09 01:03:00,64.5,64.5,30.07,NW,315,0.0,0.0,100,0.00,,---,0.00,VWS V14.00,2013-09-09 05:03:00,
2013-09-09 01:09:00,64.5,64.5,30.07,NW,315,0.0,0.0,100,0.00,,---,0.00,VWS V14.00,2013-09-09 05:09:00,
2013-09-09 01:13:00,64.5,64.5,30.07,NW,315,0.0,0.0,100,0.00,,---,0.00,VWS V14.00,2013-09-09 05:13:00,
2013-09-09 01:19:00,64.5,64.5,30.07,NW,315,0.0,0.0,100,0.00,,---,0.00,VWS V14.00,2013-09-09 05:19:00,
2013-09-09 01:24:00,64.5,64.5,30.07,NW,315,0.0,0.0,100,0.00,,---,0.00,VWS V14.00,2013-09-09 05:24:00,
2013-09-09 01:29:00,64.5,64.5,30.07,NW,315,0.0,0.0,100,0.00,,---,0.00,VWS V14.00,2013-09-09 05:29:00,
2013-09-09 01:34:00,64.5,64.5,30.07,NW,315,0.0,0.0,100,0.00,,---,0.00,VWS V14.00,2013-09-09 05:34:00,
2013-09-09 01:39:00,64.5,64.5,30.07,NW,315,0.0,0.0,100,0.00,,---,0.00,VWS V14.00,2013-09-09 05:39:00,
2013-09-09 01:44:00,64.5,64.5,30.08,NW,315,0.0,0.0,100,0.00,,---,0.00,VWS V14.00,2013-09-09 05:44:00,
2013-09-09 01:49:00,64.4,64.4,30.07,NW,315,0.0,0.0,100,0.00,,---,0.00,VWS V14.00,2013-09-09 05:49:00,
2013-09-09 01:54:00,64.2,64.2,30.07,NW,315,0.0,0.0,100,0.00,,---,0.00,VWS V14.00,2013-09-09 05:54:00,
2013-09-09 01:59:00,64.2,64.2,30.07,NW,315,0.0,0.0,100,0.00,,---,0.00,VWS V14.00,2013-09-09 05:59:00,
2013-09-09 02:04:00,64.2,64.2,30.08,NW,315,0.0,0.0,100,0.00,,---,0.00,VWS V14.00,2013-09-09 06:04:00,
2013-09-09 02:09:00,64.2,64.2,30.07,NW,315,0.0,0.0,100,0.00,,---,0.00,VWS V14.00,2013-09-09 06:09:00,
2013-09-09 02:14:00,64.0,64.0,30.07,NW,315,0.0,0.0,100,0.00,,---,0.00,VWS V14.00,2013-09-09 06:14:00,
2013-09-09 02:19:00,64.0,64.0,30.07,NW,315,0.0,0.0,100,0.00,,---,0.00,VWS V14.00,2013-09-09 06:19:00,
2013-09-09 02:24:00,64.0,64.0,30.08,NW,315,0.0,0.0,100,0.00,,---,0.00,VWS V14.00,2013-09-09 06:24:00,
2013-09-09 02:29:00,63.6,63.6,30.07,NW,315,0.0,0.0,100,0.00,,---,0.00,VWS V14.00,2013-09-09 06:29:00,
2013-09-09 02:34:00,63.6,63.6,30.07,NW,315,0.0,0.0,100,0.00,,---,0.00,VWS V14.00,2013-09-09 06:34:00,
2013-09-09 02:39:00,63.6,63.6,30.07,NW,315,0.0,0.0,100,0.00,,---,0.00,VWS V14.00,2013-09-09 06:39:00,
2013-09-09 02:44:00,63.6,63.6,30.08,NW,315,0.0,0.0,100,0.00,,---,0.00,VWS V14.00,2013-09-09 06:44:00,
2013-09-09 02:49:00,63.5,63.5,30.07,NW,315,0.0,0.0,100,0.00,,---,0.00,VWS V14.00,2013-09-09 06:49:00,
2013-09-09 02:54:00,63.5,63.5,30.07,NW,315,0.0,0.0,100,0.00,,---,0.00,VWS V14.00,2013-09-09 06:54:00,
2013-09-09 02:59:00,63.3,63.3,30.07,NW,315,0.0,0.0,100,0.00,,---,0.00,VWS V14.00,2013-09-09 06:59:00,
2013-09-09 03:04:00,63.3,63.3,30.07,NW,315,0.0,0.0,100,0.00,,---,0.00,VWS V14.00,2013-09-09 07:04:00,
2013-09-09 03:09:00,63.3,63.3,30.07,NW,315,0.0,0.0,100,0.00,,---,0.00,VWS V14.00,2013-09-09 07:09:00,
2013-09-09 03:14:00,63.1,63.1,30.07,NW,315,0.0,0.0,100,0.00,,---,0.00,VWS V14.00,2013-09-09 07:14:00,
2013-09-09 03:20:00,63.1,63.1,30.07,NW,315,0.0,0.0,100,0.00,,---,0.00,VWS V14.00,2013-09-09 07:20:00,
2013-09-09 03:25:00,63.1,63.1,30.07,NW,315,0.0,0.0,100,0.00,,---,0.00,VWS V14.00,2013-09-09 07:25:00,
2013-09-09 03:30:00,63.1,63.1,30.08,NW,315,0.0,0.0,100,0.00,,---,0.00,VWS V14.00,2013-09-09 07:30:00,
2013-09-09 03:35:00,62.9,62.9,30.07,NW,315,0.0,0.0,100,0.00,,---,0.00,VWS V14.00,2013-09-09 07:35:00,
2013-09-09 03:40:00,62.9,62.9,30.07,NW,315,0.0,0.0,100,0.00,,---,0.00,VWS V14.00,2013-09-09 07:40:00,
2013-09-09 03:45:00,62.7,62.7,30.07,NW,315,0.0,0.0,100,0.00,,---,0.00,VWS V14.00,2013-09-09 07:45:00,
2013-09-09 03:50:00,62.7,62.7,30.07,NW,315,0.0,0.0,100,0.00,,---,0.00,VWS V14.00,2013-09-09 07:50:00,
2013-09-09 03:55:00,62.7,62.7,30.08,NW,315,0.0,0.0,100,0.00,,---,0.00,VWS V14.00,2013-09-09 07:55:00,
2013-09-09 04:00:00,62.7,62.7,30.08,NW,315,0.0,0.0,100,0.00,,---,0.00,VWS V14.00,2013-09-09 08:00:00,
2013-09-09 04:05:00,62.6,62.6,30.08,NW,315,0.0,0.0,100,0.00,,---,0.00,VWS V14.00,2013-09-09 08:05:00,
2013-09-09 04:10:00,62.4,62.4,30.08,NW,315,0.0,0.0,100,0.00,,---,0.00,VWS V14.00,2013-09-09 08:10:00,
2013-09-09 04:15:00,62.4,62.4,30.08,NW,315,0.0,0.0,100,0.00,,---,0.00,VWS V14.00,2013-09-09 08:15:00,
2013-09-09 04:20:00,62.4,62.4,30.08,NW,315,0.0,0.0,100,0.00,,---,0.00,VWS V14.00,2013-09-09 08:20:00,
2013-09-09 04:25:00,62.4,62.4,30.08,NW,315,0.0,0.0,100,0.00,,---,0.00,VWS V14.00,2013-09-09 08:25:00,
2013-09-09 04:30:00,62.4,62.4,30.08,NW,315,0.0,0.0,100,0.00,,---,0.00,VWS V14.00,2013-09-09 08:30:00,
2013-09-09 04:35:00,62.4,62.4,30.08,NW,315,0.0,0.0,100,0.00,,---,0.00,VWS V14.00,2013-09-09 08:35:00,
2013-09-09 04:40:00,62.4,62.4,30.08,NW,315,0.0,0.0,100,0.00,,---,0.00,VWS V14.00,2013-09-09 08:40:00,
2013-09-09 04:45:00,62.4,62.4,30.08,NW,315,0.0,0.0,100,0.00,,---,0.00,VWS V14.00,2013-09-09 08:45:00,
2013-09-09 04:50:00,62.4,62.4,30.08,NW,315,0.0,0.0,100,0.00,,---,0.00,VWS V14.00,2013-09-09 08:50:00,
2013-09-09 04:55:00,62.2,62.2,30.08,NW,315,0.0,0.0,100,0.00,,---,0.00,VWS V14.00,2013-09-09 08:55:00,
2013-09-09 05:00:00,62.2,62.2,30.09,NW,315,0.0,0.0,100,0.00,,---,0.00,VWS V14.00,2013-09-09 09:00:00,
2013-09-09 05:05:00,62.2,62.2,30.09,NW,315,0.0,0.0,100,0.00,,---,0.00,VWS V14.00,2013-09-09 09:05:00,
2013-09-09 05:10:00,62.0,62.0,30.09,NW,315,0.0,0.0,100,0.00,,---,0.00,VWS V14.00,2013-09-09 09:10:00,
2013-09-09 05:15:00,62.0,62.0,30.09,NW,315,0.0,0.0,100,0.00,,---,0.00,VWS V14.00,2013-09-09 09:15:00,
2013-09-09 05:20:00,61.8,61.8,30.09,NW,315,0.0,0.0,100,0.00,,---,0.00,VWS V14.00,2013-09-09 09:20:00,
2013-09-09 05:26:00,61.8,61.8,30.09,NW,315,0.0,0.0,100,0.00,,---,0.00,VWS V14.00,2013-09-09 09:26:00,
2013-09-09 05:30:00,61.8,61.8,30.09,NW,315,0.0,0.0,100,0.00,,---,0.00,VWS V14.00,2013-09-09 09:30:00,
2013-09-09 05:36:00,61.8,61.8,30.09,NW,315,0.0,0.0,100,0.00,,---,0.00,VWS V14.00,2013-09-09 09:36:00,
2013-09-09 05:41:00,61.7,61.7,30.09,NW,315,0.0,0.0,100,0.00,,---,0.00,VWS V14.00,2013-09-09 09:41:00,
2013-09-09 05:46:00,61.5,61.5,30.09,NW,315,0.0,0.0,100,0.00,,---,0.00,VWS V14.00,2013-09-09 09:46:00,
2013-09-09 05:51:00,61.5,61.5,30.10,NW,315,0.0,0.0,100,0.00,,---,0.00,VWS V14.00,2013-09-09 09:51:00,
2013-09-09 05:56:00,61.5,61.5,30.10,NW,315,0.0,0.0,100,0.00,,---,0.00,VWS V14.00,2013-09-09 09:56:00,
2013-09-09 06:01:00,61.5,61.5,30.10,NW,315,0.0,0.0,100,0.00,,---,0.00,VWS V14.00,2013-09-09 10:01:00,
2013-09-09 06:06:00,61.3,61.3,30.10,NW,315,0.0,0.0,100,0.00,,---,0.00,VWS V14.00,2013-09-09 10:06:00,
2013-09-09 06:11:00,61.3,61.3,30.10,NW,315,0.0,0.0,100,0.00,,---,0.00,VWS V14.00,2013-09-09 10:11:00,
2013-09-09 06:16:00,61.3,61.3,30.10,NW,315,0.0,0.0,100,0.00,,---,0.00,VWS V14.00,2013-09-09 10:16:00,
2013-09-09 06:21:00,61.1,61.1,30.10,NW,315,0.0,0.0,100,0.00,,---,0.00,VWS V14.00,2013-09-09 10:21:00,
2013-09-09 06:26:00,61.1,61.1,30.10,NW,315,0.0,0.0,100,0.00,,---,0.00,VWS V14.00,2013-09-09 10:26:00,
2013-09-09 06:31:00,60.9,60.9,30.10,NW,315,0.0,0.0,100,0.00,,---,0.00,VWS V14.00,2013-09-09 10:31:00,
2013-09-09 06:36:00,60.9,60.9,30.10,NW,315,0.0,0.0,100,0.00,,---,0.00,VWS V14.00,2013-09-09 10:36:00,
2013-09-09 06:41:00,60.9,60.9,30.10,NW,315,0.0,0.0,100,0.00,,---,0.00,VWS V14.00,2013-09-09 10:41:00,
2013-09-09 06:46:00,60.9,60.9,30.10,NW,315,0.0,0.0,100,0.00,,---,0.00,VWS V14.00,2013-09-09 10:46:00,
2013-09-09 06:51:00,60.6,60.6,30.10,NW,315,0.0,0.0,100,0.00,,---,0.00,VWS V14.00,2013-09-09 10:51:00,
2013-09-09 06:56:00,60.6,60.6,30.10,NW,315,0.0,0.0,100,0.00,,---,0.00,VWS V14.00,2013-09-09 10:56:00,
2013-09-09 07:02:00,60.6,60.6,30.10,NW,315,0.0,0.0,100,0.00,,---,0.00,VWS V14.00,2013-09-09 11:02:00,
2013-09-09 07:07:00,60.6,60.6,30.11,NW,315,0.0,0.0,100,0.00,,---,0.00,VWS V14.00,2013-09-09 11:07:00,
2013-09-09 07:12:00,60.6,60.6,30.11,NW,315,0.0,0.0,100,0.00,,---,0.00,VWS V14.00,2013-09-09 11:12:00,
2013-09-09 07:17:00,60.6,60.6,30.10,NW,315,0.0,0.0,100,0.00,,---,0.00,VWS V14.00,2013-09-09 11:17:00,
2013-09-09 07:22:00,60.6,60.6,30.11,NW,315,0.0,0.0,100,0.00,,---,0.00,VWS V14.00,2013-09-09 11:22:00,
2013-09-09 07:27:00,60.6,60.6,30.11,NW,315,0.0,0.0,100,0.00,,---,0.00,VWS V14.00,2013-09-09 11:27:00,
2013-09-09 07:32:00,60.6,60.6,30.12,NW,315,0.0,0.0,100,0.00,,---,0.00,VWS V14.00,2013-09-09 11:32:00,
2013-09-09 07:37:00,60.6,60.6,30.12,NW,315,0.0,0.0,100,0.00,,---,0.00,VWS V14.00,2013-09-09 11:37:00,
2013-09-09 07:42:00,60.6,60.6,30.12,NW,315,0.0,0.0,100,0.00,,---,0.00,VWS V14.00,2013-09-09 11:42:00,
2013-09-09 07:47:00,60.8,60.8,30.12,NW,315,0.0,0.0,100,0.00,,---,0.00,VWS V14.00,2013-09-09 11:47:00,
2013-09-09 07:52:00,60.9,60.9,30.12,NW,315,0.0,0.0,100,0.00,,---,0.00,VWS V14.00,2013-09-09 11:52:00,
2013-09-09 07:57:00,61.1,61.1,30.12,NW,315,0.0,0.0,100,0.00,,---,0.00,VWS V14.00,2013-09-09 11:57:00,
2013-09-09 08:02:00,61.1,61.1,30.13,NW,315,0.0,0.0,100,0.00,,---,0.00,VWS V14.00,2013-09-09 12:02:00,
2013-09-09 08:07:00,61.5,61.5,30.13,NW,315,0.0,0.0,100,0.00,,---,0.00,VWS V14.00,2013-09-09 12:07:00,
2013-09-09 08:12:00,61.7,61.7,30.13,NW,315,0.0,0.0,100,0.00,,---,0.00,VWS V14.00,2013-09-09 12:12:00,
2013-09-09 08:17:00,61.8,61.8,30.13,NW,315,0.0,0.0,100,0.00,,---,0.00,VWS V14.00,2013-09-09 12:17:00,
2013-09-09 08:22:00,62.2,62.2,30.13,NW,315,0.0,0.0,100,0.00,,---,0.00,VWS V14.00,2013-09-09 12:22:00,
2013-09-09 08:27:00,62.6,62.6,30.13,NW,315,0.0,0.0,100,0.00,,---,0.00,VWS V14.00,2013-09-09 12:27:00,
2013-09-09 08:32:00,62.7,62.7,30.13,NW,315,0.0,0.0,100,0.00,,---,0.00,VWS V14.00,2013-09-09 12:32:00,
2013-09-09 08:37:00,63.1,63.1,30.13,NW,315,0.0,0.0,100,0.00,,---,0.00,VWS V14.00,2013-09-09 12:37:00,
2013-09-09 08:42:00,63.5,63.5,30.13,NW,315,0.0,0.0,100,0.00,,---,0.00,VWS V14.00,2013-09-09 12:42:00,
2013-09-09 08:47:00,64.0,64.0,30.13,NW,315,0.0,0.0,100,0.00,,---,0.00,VWS V14.00,2013-09-09 12:47:00,
2013-09-09 08:52:00,64.2,64.2,30.13,NW,315,0.0,0.0,100,0.00,,---,0.00,VWS V14.00,2013-09-09 12:52:00,
2013-09-09 08:57:00,64.9,64.9,30.13,NW,315,0.0,0.0,100,0.00,,---,0.00,VWS V14.00,2013-09-09 12:57:00,
2013-09-09 09:02:00,65.4,65.4,30.13,NW,315,0.0,0.0,100,0.00,,---,0.00,VWS V14.00,2013-09-09 13:02:00,
2013-09-09 09:07:00,66.0,66.0,30.13,NW,315,0.0,0.0,100,0.00,,---,0.00,VWS V14.00,2013-09-09 13:07:00,
2013-09-09 09:12:00,66.9,66.9,30.13,NW,315,0.0,0.0,100,0.00,,---,0.00,VWS V14.00,2013-09-09 13:12:00,
2013-09-09 09:17:00,67.6,67.6,30.14,NW,315,0.0,0.0,100,0.00,,---,0.00,VWS V14.00,2013-09-09 13:17:00,
2013-09-09 09:22:00,68.1,68.1,30.14,NW,315,0.0,0.0,100,0.00,,---,0.00,VWS V14.00,2013-09-09 13:22:00,
2013-09-09 09:27:00,69.2,69.2,30.14,NW,315,0.0,0.0,100,0.00,,---,0.00,VWS V14.00,2013-09-09 13:27:00,
2013-09-09 09:32:00,69.9,69.9,30.14,NW,315,0.0,0.0,100,0.00,,---,0.00,VWS V14.00,2013-09-09 13:32:00,
2013-09-09 09:37:00,70.7,70.7,30.14,NW,315,0.0,0.0,100,0.00,,---,0.00,VWS V14.00,2013-09-09 13:37:00,
2013-09-09 09:42:00,71.4,71.1,30.14,NW,315,0.0,0.0,99,0.00,,---,0.00,VWS V14.00,2013-09-09 13:42:00,
2013-09-09 09:47:00,72.1,71.8,30.14,NW,315,0.0,0.0,99,0.00,,---,0.00,VWS V14.00,2013-09-09 13:47:00,
2013-09-09 09:52:00,72.6,72.0,30.14,NW,315,0.0,0.0,98,0.00,,---,0.00,VWS V14.00,2013-09-09 13:52:00,
2013-09-09 09:57:00,73.5,72.3,30.14,North,0,0.0,0.0,96,0.00,,---,0.00,VWS V14.00,2013-09-09 13:57:00,
2013-09-09 10:02:00,73.9,72.4,30.14,NE,45,0.0,0.0,95,0.00,,---,0.00,VWS V14.00,2013-09-09 14:02:00,
2013-09-09 10:07:00,74.4,72.9,30.14,NE,45,0.0,0.0,95,0.00,,---,0.00,VWS V14.00,2013-09-09 14:07:00,
2013-09-09 10:12:00,75.0,73.2,30.14,NE,45,0.0,0.0,94,0.00,,---,0.00,VWS V14.00,2013-09-09 14:12:00,
2013-09-09 10:17:00,75.3,72.8,30.14,NE,45,0.0,0.0,92,0.00,,---,0.00,VWS V14.00,2013-09-09 14:17:00,
2013-09-09 10:22:00,75.7,72.9,30.14,NE,45,0.0,0.0,91,0.00,,---,0.00,VWS V14.00,2013-09-09 14:22:00,
2013-09-09 10:27:00,76.4,73.6,30.15,NE,45,0.0,0.0,91,0.00,,---,0.00,VWS V14.00,2013-09-09 14:27:00,
2013-09-09 10:32:00,77.0,73.8,30.14,SSE,158,0.0,0.0,90,0.00,,---,0.00,VWS V14.00,2013-09-09 14:32:00,
2013-09-09 10:37:00,77.5,74.3,30.14,SSE,158,0.0,0.0,90,0.00,,---,0.00,VWS V14.00,2013-09-09 14:37:00,
2013-09-09 10:42:00,78.4,74.6,30.14,South,180,0.0,0.0,88,0.00,,---,0.00,VWS V14.00,2013-09-09 14:42:00,
2013-09-09 10:47:00,78.6,73.4,30.14,NE,45,0.0,0.0,84,0.00,,---,0.00,VWS V14.00,2013-09-09 14:47:00,
2013-09-09 10:52:00,78.8,73.6,30.14,ENE,68,0.0,0.0,84,0.00,,---,0.00,VWS V14.00,2013-09-09 14:52:00,
2013-09-09 10:57:00,78.9,73.3,30.15,NE,45,0.0,0.0,83,0.00,,---,0.00,VWS V14.00,2013-09-09 14:57:00,
2013-09-09 11:02:00,79.1,73.8,30.15,SSW,202,0.0,0.0,84,0.00,,---,0.00,VWS V14.00,2013-09-09 15:02:00,
2013-09-09 11:07:00,79.5,73.9,30.15,SSW,202,0.0,0.0,83,0.00,,---,0.00,VWS V14.00,2013-09-09 15:07:00,
2013-09-09 11:12:00,80.4,74.8,30.15,SSW,202,0.0,0.0,83,0.00,,---,0.00,VWS V14.00,2013-09-09 15:12:00,
2013-09-09 11:17:00,80.6,74.2,30.15,SE,135,0.0,0.0,81,0.00,,---,0.00,VWS V14.00,2013-09-09 15:17:00,
2013-09-09 11:22:00,80.7,74.3,30.15,SSW,202,0.0,0.0,81,0.00,,---,0.00,VWS V14.00,2013-09-09 15:22:00,
2013-09-09 11:27:00,81.1,74.3,30.15,ENE,68,0.0,0.0,80,0.00,,---,0.00,VWS V14.00,2013-09-09 15:27:00,
2013-09-09 11:32:00,81.3,74.5,30.15,SSE,158,0.0,0.0,80,0.00,,---,0.00,VWS V14.00,2013-09-09 15:32:00,
2013-09-09 11:37:00,81.8,75.0,30.15,SE,135,0.0,0.0,80,0.00,,---,0.00,VWS V14.00,2013-09-09 15:37:00,
2013-09-09 11:42:00,82.7,75.5,30.15,NE,45,0.0,0.0,79,0.00,,---,0.00,VWS V14.00,2013-09-09 15:42:00,
2013-09-09 11:47:00,83.1,75.5,30.15,SW,225,0.0,0.0,78,0.00,,---,0.00,VWS V14.00,2013-09-09 15:47:00,
2013-09-09 11:53:00,83.8,75.8,30.15,SW,225,0.0,0.0,77,0.00,,---,0.00,VWS V14.00,2013-09-09 15:53:00,
2013-09-09 11:58:00,83.8,75.4,30.15,SSW,202,0.0,0.0,76,0.00,,---,0.00,VWS V14.00,2013-09-09 15:58:00,
2013-09-09 12:03:00,83.4,75.4,30.15,SSE,158,0.0,0.0,77,0.00,,---,0.00,VWS V14.00,2013-09-09 16:03:00,
2013-09-09 12:08:00,83.1,75.2,30.15,SW,225,0.0,0.0,77,0.00,,---,0.00,VWS V14.00,2013-09-09 16:08:00,
2013-09-09 12:13:00,82.5,74.9,30.15,WSW,248,0.0,0.0,78,0.00,,---,0.00,VWS V14.00,2013-09-09 16:13:00,
2013-09-09 12:18:00,83.1,75.5,30.15,South,180,0.0,0.0,78,0.00,,---,0.00,VWS V14.00,2013-09-09 16:18:00,
2013-09-09 12:22:00,84.0,76.4,30.15,SW,225,0.0,0.0,78,0.00,,---,0.00,VWS V14.00,2013-09-09 16:22:00,
2013-09-09 12:27:00,85.2,76.4,30.15,SSE,158,0.0,0.0,75,0.00,,---,0.00,VWS V14.00,2013-09-09 16:27:00,
2013-09-09 12:32:00,85.8,76.2,30.15,SE,135,0.0,0.0,73,0.00,,---,0.00,VWS V14.00,2013-09-09 16:32:00,
2013-09-09 12:37:00,86.1,75.6,30.15,ESE,112,0.0,0.0,71,0.00,,---,0.00,VWS V14.00,2013-09-09 16:37:00,
2013-09-09 12:42:00,85.8,74.9,30.15,East,90,0.0,0.0,70,0.00,,---,0.00,VWS V14.00,2013-09-09 16:42:00,
2013-09-09 12:47:00,85.8,74.9,30.15,NE,45,0.0,0.0,70,0.00,,---,0.00,VWS V14.00,2013-09-09 16:47:00,
2013-09-09 12:52:00,85.8,74.5,30.15,South,180,0.0,0.0,69,0.00,,---,0.00,VWS V14.00,2013-09-09 16:52:00,
2013-09-09 12:57:00,85.2,74.3,30.15,ESE,112,0.0,0.0,70,0.00,,---,0.00,VWS V14.00,2013-09-09 16:57:00,
2013-09-09 13:02:00,84.9,74.4,30.14,NE,45,0.0,0.0,71,0.00,,---,0.00,VWS V14.00,2013-09-09 17:02:00,
2013-09-09 13:07:00,84.2,73.8,30.14,NW,315,0.0,0.0,71,0.00,,---,0.00,VWS V14.00,2013-09-09 17:07:00,
2013-09-09 13:12:00,84.0,74.0,30.14,NNW,338,0.0,0.0,72,0.00,,---,0.00,VWS V14.00,2013-09-09 17:12:00,
2013-09-09 13:17:00,84.0,74.0,30.14,SW,225,0.0,0.0,72,0.00,,---,0.00,VWS V14.00,2013-09-09 17:17:00,
2013-09-09 13:23:00,84.0,74.0,30.14,North,0,0.0,0.0,72,0.00,,---,0.00,VWS V14.00,2013-09-09 17:23:00,
2013-09-09 13:28:00,83.4,73.8,30.14,SE,135,0.0,0.0,73,0.00,,---,0.00,VWS V14.00,2013-09-09 17:28:00,
2013-09-09 13:33:00,83.4,73.8,30.14,SSW,202,0.0,0.0,73,0.00,,---,0.00,VWS V14.00,2013-09-09 17:33:00,
2013-09-09 13:38:00,84.0,74.4,30.14,SW,225,0.0,0.0,73,0.00,,---,0.00,VWS V14.00,2013-09-09 17:38:00,
2013-09-09 13:43:00,84.3,74.3,30.14,ENE,68,0.0,0.0,72,0.00,,---,0.00,VWS V14.00,2013-09-09 17:43:00,
2013-09-09 13:48:00,84.5,74.5,30.14,NW,315,0.0,0.0,72,0.00,,---,0.00,VWS V14.00,2013-09-09 17:48:00,
2013-09-09 13:53:00,84.7,74.7,30.14,NE,45,0.0,0.0,72,0.00,,---,0.00,VWS V14.00,2013-09-09 17:53:00,
2013-09-09 13:58:00,84.7,74.7,30.14,NE,45,0.0,0.0,72,0.00,,---,0.00,VWS V14.00,2013-09-09 17:58:00,
2013-09-09 14:03:00,84.7,74.7,30.14,NE,45,0.0,0.0,72,0.00,,---,0.00,VWS V14.00,2013-09-09 18:03:00,
2013-09-09 14:08:00,84.7,74.3,30.14,SW,225,0.0,0.0,71,0.00,,---,0.00,VWS V14.00,2013-09-09 18:08:00,
2013-09-09 14:13:00,84.5,74.5,30.14,SE,135,0.0,0.0,72,0.00,,---,0.00,VWS V14.00,2013-09-09 18:13:00,
2013-09-09 14:18:00,84.5,74.1,30.14,ESE,112,0.0,0.0,71,0.00,,---,0.00,VWS V14.00,2013-09-09 18:18:00,
2013-09-09 14:23:00,84.3,74.3,30.14,SSW,202,0.0,0.0,72,0.00,,---,0.00,VWS V14.00,2013-09-09 18:23:00,
2013-09-09 14:28:00,84.3,74.3,30.14,WNW,292,0.0,0.0,72,0.00,,---,0.00,VWS V14.00,2013-09-09 18:28:00,
2013-09-09 14:33:00,83.8,73.8,30.14,South,180,0.0,0.0,72,0.00,,---,0.00,VWS V14.00,2013-09-09 18:33:00,
2013-09-09 14:38:00,83.1,73.1,30.14,North,0,0.0,0.0,72,0.00,,---,0.00,VWS V14.00,2013-09-09 18:38:00,
2013-09-09 14:43:00,82.7,73.2,30.14,SSW,202,0.0,0.0,73,0.00,,---,0.00,VWS V14.00,2013-09-09 18:43:00,
2013-09-09 14:48:00,82.2,72.7,30.14,WNW,292,0.0,0.0,73,0.00,,---,0.00,VWS V14.00,2013-09-09 18:48:00,
2013-09-09 14:53:00,81.8,72.3,30.14,SW,225,0.0,0.0,73,0.00,,---,0.00,VWS V14.00,2013-09-09 18:53:00,
2013-09-09 14:58:00,81.8,72.7,30.13,NE,45,0.0,0.0,74,0.00,,---,0.00,VWS V14.00,2013-09-09 18:58:00,
2013-09-09 15:03:00,81.6,72.5,30.14,West,270,0.0,0.0,74,0.00,,---,0.00,VWS V14.00,2013-09-09 19:03:00,
2013-09-09 15:08:00,81.6,72.5,30.14,SW,225,0.0,0.0,74,0.00,,---,0.00,VWS V14.00,2013-09-09 19:08:00,
2013-09-09 15:13:00,81.6,72.5,30.13,NNE,22,0.0,0.0,74,0.00,,---,0.00,VWS V14.00,2013-09-09 19:13:00,
2013-09-09 15:18:00,81.8,72.3,30.13,South,180,0.0,0.0,73,0.00,,---,0.00,VWS V14.00,2013-09-09 19:18:00,
2013-09-09 15:23:00,81.6,72.5,30.13,ENE,68,0.0,0.0,74,0.00,,---,0.00,VWS V14.00,2013-09-09 19:23:00,
2013-09-09 15:28:00,81.6,72.5,30.13,SSW,202,0.0,0.0,74,0.00,,---,0.00,VWS V14.00,2013-09-09 19:28:00,
2013-09-09 15:33:00,81.6,72.1,30.13,WSW,248,0.0,0.0,73,0.00,,---,0.00,VWS V14.00,2013-09-09 19:33:00,
2013-09-09 15:38:00,81.6,72.1,30.12,SW,225,0.0,0.0,73,0.00,,---,0.00,VWS V14.00,2013-09-09 19:38:00,
2013-09-09 15:44:00,81.6,72.5,30.13,SW,225,0.0,0.0,74,0.00,,---,0.00,VWS V14.00,2013-09-09 19:44:00,
2013-09-09 15:49:00,81.1,72.0,30.13,East,90,0.0,0.0,74,0.00,,---,0.00,VWS V14.00,2013-09-09 19:49:00,
2013-09-09 15:54:00,80.7,71.7,30.13,SSE,158,0.0,0.0,74,0.00,,---,0.00,VWS V14.00,2013-09-09 19:54:00,
2013-09-09 15:59:00,80.6,71.9,30.13,SSE,158,0.0,0.0,75,0.00,,---,0.00,VWS V14.00,2013-09-09 19:59:00,
2013-09-09 16:04:00,80.6,71.9,30.13,SSE,158,0.0,0.0,75,0.00,,---,0.00,VWS V14.00,2013-09-09 20:04:00,
2013-09-09 16:09:00,80.7,72.0,30.13,West,270,0.0,0.0,75,0.00,,---,0.00,VWS V14.00,2013-09-09 20:09:00,
2013-09-09 16:14:00,81.1,71.6,30.13,SSW,202,0.0,0.0,73,0.00,,---,0.00,VWS V14.00,2013-09-09 20:14:00,
2013-09-09 16:19:00,81.3,71.8,30.13,SW,225,0.0,0.0,73,0.00,,---,0.00,VWS V14.00,2013-09-09 20:19:00,
2013-09-09 16:24:00,81.3,71.8,30.13,East,90,0.0,0.0,73,0.00,,---,0.00,VWS V14.00,2013-09-09 20:24:00,
2013-09-09 16:29:00,81.3,72.2,30.13,West,270,0.0,0.0,74,0.00,,---,0.00,VWS V14.00,2013-09-09 20:29:00,
2013-09-09 16:34:00,81.3,72.2,30.13,SW,225,0.0,0.0,74,0.00,,---,0.00,VWS V14.00,2013-09-09 20:34:00,
2013-09-09 16:39:00,80.7,72.0,30.13,South,180,0.0,0.0,75,0.00,,---,0.00,VWS V14.00,2013-09-09 20:39:00,
2013-09-09 16:44:00,80.4,71.8,30.13,South,180,0.0,0.0,75,0.00,,---,0.00,VWS V14.00,2013-09-09 20:44:00,
2013-09-09 16:49:00,80.2,71.9,30.13,SE,135,0.0,0.0,76,0.00,,---,0.00,VWS V14.00,2013-09-09 20:49:00,
2013-09-09 16:54:00,79.5,71.3,30.13,North,0,0.0,0.0,76,0.00,,---,0.00,VWS V14.00,2013-09-09 20:54:00,
2013-09-09 16:59:00,79.1,71.3,30.13,West,270,0.0,0.0,77,0.00,,---,0.00,VWS V14.00,2013-09-09 20:59:00,
2013-09-09 17:04:00,78.9,71.1,30.13,South,180,0.0,0.0,77,0.00,,---,0.00,VWS V14.00,2013-09-09 21:04:00,
2013-09-09 17:09:00,78.6,70.8,30.13,West,270,0.0,0.0,77,0.00,,---,0.00,VWS V14.00,2013-09-09 21:09:00,
2013-09-09 17:14:00,78.4,70.6,30.13,WNW,292,0.0,0.0,77,0.00,,---,0.00,VWS V14.00,2013-09-09 21:14:00,
2013-09-09 17:19:00,78.0,70.6,30.13,WNW,292,0.0,0.0,78,0.00,,---,0.00,VWS V14.00,2013-09-09 21:19:00,
2013-09-09 17:24:00,77.9,70.5,30.13,WNW,292,0.0,0.0,78,0.00,,---,0.00,VWS V14.00,2013-09-09 21:24:00,
2013-09-09 17:29:00,77.7,70.7,30.13,WSW,248,0.0,0.0,79,0.00,,---,0.00,VWS V14.00,2013-09-09 21:29:00,
2013-09-09 17:34:00,77.5,70.5,30.13,NNE,22,0.0,0.0,79,0.00,,---,0.00,VWS V14.00,2013-09-09 21:34:00,
2013-09-09 17:39:00,77.5,70.5,30.13,SW,225,0.0,0.0,79,0.00,,---,0.00,VWS V14.00,2013-09-09 21:39:00,
2013-09-09 17:44:00,77.5,70.5,30.13,SW,225,0.0,0.0,79,0.00,,---,0.00,VWS V14.00,2013-09-09 21:44:00,
2013-09-09 17:49:00,77.7,70.7,30.13,WNW,292,0.0,0.0,79,0.00,,---,0.00,VWS V14.00,2013-09-09 21:49:00,
2013-09-09 17:54:00,77.7,70.3,30.13,SSE,158,0.0,0.0,78,0.00,,---,0.00,VWS V14.00,2013-09-09 21:54:00,
2013-09-09 17:59:00,77.9,70.9,30.13,South,180,0.0,0.0,79,0.00,,---,0.00,VWS V14.00,2013-09-09 21:59:00,
2013-09-09 18:04:00,77.7,70.7,30.13,South,180,0.0,0.0,79,0.00,,---,0.00,VWS V14.00,2013-09-09 22:04:00,
2013-09-09 18:09:00,77.5,70.8,30.13,ESE,112,0.0,0.0,80,0.00,,---,0.00,VWS V14.00,2013-09-09 22:09:00,
2013-09-09 18:14:00,77.5,71.2,30.13,ESE,112,0.0,0.0,81,0.00,,---,0.00,VWS V14.00,2013-09-09 22:14:00,
2013-09-09 18:19:00,77.7,71.8,30.13,NNE,22,0.0,0.0,82,0.00,,---,0.00,VWS V14.00,2013-09-09 22:19:00,
2013-09-09 18:24:00,77.9,72.0,30.13,ESE,112,0.0,0.0,82,0.00,,---,0.00,VWS V14.00,2013-09-09 22:24:00,
2013-09-09 18:29:00,78.0,72.1,30.13,SSW,202,0.0,0.0,82,0.00,,---,0.00,VWS V14.00,2013-09-09 22:29:00,
2013-09-09 18:34:00,78.0,72.1,30.13,West,270,0.0,0.0,82,0.00,,---,0.00,VWS V14.00,2013-09-09 22:34:00,
2013-09-09 18:39:00,77.7,71.8,30.13,WSW,248,0.0,0.0,82,0.00,,---,0.00,VWS V14.00,2013-09-09 22:39:00,
2013-09-09 18:44:00,77.3,71.4,30.13,West,270,0.0,0.0,82,0.00,,---,0.00,VWS V14.00,2013-09-09 22:44:00,
2013-09-09 18:49:00,77.1,71.2,30.13,WSW,248,0.0,0.0,82,0.00,,---,0.00,VWS V14.00,2013-09-09 22:49:00,
2013-09-09 18:54:00,76.6,71.1,30.13,WSW,248,0.0,0.0,83,0.00,,---,0.00,VWS V14.00,2013-09-09 22:54:00,
2013-09-09 18:59:00,76.1,70.6,30.13,WSW,248,0.0,0.0,83,0.00,,---,0.00,VWS V14.00,2013-09-09 22:59:00,
2013-09-09 19:04:00,75.7,70.5,30.13,WSW,248,0.0,0.0,84,0.00,,---,0.00,VWS V14.00,2013-09-09 23:04:00,
2013-09-09 19:09:00,75.3,70.5,30.13,WSW,248,0.0,0.0,85,0.00,,---,0.00,VWS V14.00,2013-09-09 23:09:00,
2013-09-09 19:14:00,74.8,70.0,30.13,WSW,248,0.0,0.0,85,0.00,,---,0.00,VWS V14.00,2013-09-09 23:14:00,
2013-09-09 19:19:00,74.3,69.8,30.14,WSW,248,0.0,0.0,86,0.00,,---,0.00,VWS V14.00,2013-09-09 23:19:00,
2013-09-09 19:24:00,73.9,69.8,30.14,WSW,248,0.0,0.0,87,0.00,,---,0.00,VWS V14.00,2013-09-09 23:24:00,
2013-09-09 19:29:00,73.5,69.4,30.14,WSW,248,0.0,0.0,87,0.00,,---,0.00,VWS V14.00,2013-09-09 23:29:00,
2013-09-09 19:34:00,73.2,69.1,30.13,WSW,248,0.0,0.0,87,0.00,,---,0.00,VWS V14.00,2013-09-09 23:34:00,
2013-09-09 19:39:00,72.6,68.8,30.13,WSW,248,0.0,0.0,88,0.00,,---,0.00,VWS V14.00,2013-09-09 23:39:00,
2013-09-09 19:44:00,72.3,68.6,30.14,WSW,248,0.0,0.0,88,0.00,,---,0.00,VWS V14.00,2013-09-09 23:44:00,
2013-09-09 19:49:00,72.1,68.7,30.14,WSW,248,0.0,0.0,89,0.00,,---,0.00,VWS V14.00,2013-09-09 23:49:00,
2013-09-09 19:54:00,71.7,68.3,30.14,WSW,248,0.0,0.0,89,0.00,,---,0.00,VWS V14.00,2013-09-09 23:54:00,
2013-09-09 19:59:00,71.4,68.3,30.14,WSW,248,0.0,0.0,90,0.00,,---,0.00,VWS V14.00,2013-09-09 23:59:00,
2013-09-09 20:04:00,71.2,68.1,30.14,WSW,248,0.0,0.0,90,0.00,,---,0.00,VWS V14.00,2013-09-10 00:04:00,
2013-09-09 20:09:00,70.8,68.1,30.15,WSW,248,0.0,0.0,91,0.00,,---,0.00,VWS V14.00,2013-09-10 00:09:00,
2013-09-09 20:14:00,70.5,67.8,30.14,WSW,248,0.0,0.0,91,0.00,,---,0.00,VWS V14.00,2013-09-10 00:14:00,
2013-09-09 20:19:00,70.3,67.6,30.14,WSW,248,0.0,0.0,91,0.00,,---,0.00,VWS V14.00,2013-09-10 00:19:00,
2013-09-09 20:24:00,69.9,67.5,30.14,WSW,248,0.0,0.0,92,0.00,,---,0.00,VWS V14.00,2013-09-10 00:24:00,
2013-09-09 20:29:00,69.8,67.4,30.14,WSW,248,0.0,0.0,92,0.00,,---,0.00,VWS V14.00,2013-09-10 00:29:00,
2013-09-09 20:34:00,69.6,67.5,30.14,WSW,248,0.0,0.0,93,0.00,,---,0.00,VWS V14.00,2013-09-10 00:34:00,
2013-09-09 20:39:00,69.4,67.3,30.15,WSW,248,0.0,0.0,93,0.00,,---,0.00,VWS V14.00,2013-09-10 00:39:00,
2013-09-09 20:44:00,69.2,67.1,30.15,WSW,248,0.0,0.0,93,0.00,,---,0.00,VWS V14.00,2013-09-10 00:44:00,
2013-09-09 20:49:00,69.0,67.2,30.15,WSW,248,0.0,0.0,94,0.00,,---,0.00,VWS V14.00,2013-09-10 00:49:00,
2013-09-09 20:54:00,68.7,66.9,30.15,WSW,248,0.0,0.0,94,0.00,,---,0.00,VWS V14.00,2013-09-10 00:54:00,
2013-09-09 20:59:00,68.7,66.9,30.15,WSW,248,0.0,0.0,94,0.00,,---,0.00,VWS V14.00,2013-09-10 00:59:00,
2013-09-09 21:04:00,68.5,66.7,30.15,WSW,248,0.0,0.0,94,0.00,,---,0.00,VWS V14.00,2013-09-10 01:04:00,
2013-09-09 21:09:00,68.1,66.3,30.15,WSW,248,0.0,0.0,94,0.00,,---,0.00,VWS V14.00,2013-09-10 01:09:00,
2013-09-09 21:14:00,68.1,66.3,30.15,WSW,248,0.0,0.0,94,0.00,,---,0.00,VWS V14.00,2013-09-10 01:14:00,
2013-09-09 21:19:00,67.8,66.3,30.15,WSW,248,0.0,0.0,95,0.00,,---,0.00,VWS V14.00,2013-09-10 01:19:00,
2013-09-09 21:24:00,67.8,66.3,30.16,WSW,248,0.0,0.0,95,0.00,,---,0.00,VWS V14.00,2013-09-10 01:24:00,
2013-09-09 21:29:00,67.6,66.1,30.15,WSW,248,0.0,0.0,95,0.00,,---,0.00,VWS V14.00,2013-09-10 01:29:00,
2013-09-09 21:35:00,67.6,66.1,30.16,WSW,248,0.0,0.0,95,0.00,,---,0.00,VWS V14.00,2013-09-10 01:35:00,
2013-09-09 21:40:00,67.2,66.0,30.16,WSW,248,0.0,0.0,96,0.00,,---,0.00,VWS V14.00,2013-09-10 01:40:00,
2013-09-09 21:45:00,67.2,66.0,30.16,WSW,248,0.0,0.0,96,0.00,,---,0.00,VWS V14.00,2013-09-10 01:45:00,
2013-09-09 21:50:00,67.1,65.9,30.16,WSW,248,0.0,0.0,96,0.00,,---,0.00,VWS V14.00,2013-09-10 01:50:00,
2013-09-09 21:55:00,66.9,65.7,30.17,WSW,248,0.0,0.0,96,0.00,,---,0.00,VWS V14.00,2013-09-10 01:55:00,
2013-09-09 22:00:00,66.9,65.7,30.17,WSW,248,0.0,0.0,96,0.00,,---,0.00,VWS V14.00,2013-09-10 02:00:00,
2013-09-09 22:05:00,66.7,65.8,30.17,WSW,248,0.0,0.0,97,0.00,,---,0.00,VWS V14.00,2013-09-10 02:05:00,
2013-09-09 22:10:00,66.7,65.8,30.17,WSW,248,0.0,0.0,97,0.00,,---,0.00,VWS V14.00,2013-09-10 02:10:00,
2013-09-09 22:15:00,66.5,65.6,30.17,WSW,248,0.0,0.0,97,0.00,,---,0.00,VWS V14.00,2013-09-10 02:15:00,
2013-09-09 22:20:00,66.3,65.4,30.17,WSW,248,0.0,0.0,97,0.00,,---,0.00,VWS V14.00,2013-09-10 02:20:00,
2013-09-09 22:25:00,66.2,65.3,30.17,WSW,248,0.0,0.0,97,0.00,,---,0.00,VWS V14.00,2013-09-10 02:25:00,
2013-09-09 22:30:00,66.2,65.3,30.18,WSW,248,0.0,0.0,97,0.00,,---,0.00,VWS V14.00,2013-09-10 02:30:00,
2013-09-09 22:35:00,66.0,65.1,30.18,WSW,248,0.0,0.0,97,0.00,,---,0.00,VWS V14.00,2013-09-10 02:35:00,
2013-09-09 22:40:00,66.0,65.1,30.18,WSW,248,0.0,0.0,97,0.00,,---,0.00,VWS V14.00,2013-09-10 02:40:00,
2013-09-09 22:45:00,65.8,64.9,30.18,WSW,248,0.0,0.0,97,0.00,,---,0.00,VWS V14.00,2013-09-10 02:45:00,
2013-09-09 22:50:00,65.8,65.2,30.18,WSW,248,0.0,0.0,98,0.00,,---,0.00,VWS V14.00,2013-09-10 02:50:00,
2013-09-09 22:55:00,65.6,65.0,30.18,WSW,248,0.0,0.0,98,0.00,,---,0.00,VWS V14.00,2013-09-10 02:55:00,
2013-09-09 23:00:00,65.4,64.8,30.18,WSW,248,0.0,0.0,98,0.00,,---,0.00,VWS V14.00,2013-09-10 03:00:00,
2013-09-09 23:05:00,65.4,64.8,30.18,WSW,248,0.0,0.0,98,0.00,,---,0.00,VWS V14.00,2013-09-10 03:05:00,
2013-09-09 23:10:00,65.3,64.7,30.18,WSW,248,0.0,0.0,98,0.00,,---,0.00,VWS V14.00,2013-09-10 03:10:00,
2013-09-09 23:15:00,65.3,64.7,30.18,WSW,248,0.0,0.0,98,0.00,,---,0.00,VWS V14.00,2013-09-10 03:15:00,
2013-09-09 23:20:00,65.1,64.5,30.18,WSW,248,0.0,0.0,98,0.00,,---,0.00,VWS V14.00,2013-09-10 03:20:00,
2013-09-09 23:25:00,65.1,64.8,30.18,WSW,248,0.0,0.0,99,0.00,,---,0.00,VWS V14.00,2013-09-10 03:25:00,
2013-09-09 23:30:00,64.9,64.6,30.18,WSW,248,0.0,0.0,99,0.00,,---,0.00,VWS V14.00,2013-09-10 03:30:00,
2013-09-09 23:35:00,64.9,64.6,30.18,WSW,248,0.0,0.0,99,0.00,,---,0.00,VWS V14.00,2013-09-10 03:35:00,
2013-09-09 23:40:00,64.7,64.4,30.18,WSW,248,0.0,0.0,99,0.00,,---,0.00,VWS V14.00,2013-09-10 03:40:00,
2013-09-09 23:45:00,64.5,64.2,30.18,WSW,248,0.0,0.0,99,0.00,,---,0.00,VWS V14.00,2013-09-10 03:45:00,
2013-09-09 23:50:00,64.5,64.2,30.18,WSW,248,0.0,0.0,99,0.00,,---,0.00,VWS V14.00,2013-09-10 03:50:00,
2013-09-09 23:55:00,64.5,64.2,30.18,WSW,248,0.0,0.0,99,0.00,,---,0.00,VWS V14.00,2013-09-10 03:55:00,